To NAV CANADA Home Page Login to a new session Search on AWWS site Disclaimer Vers la page française équivalente Tips FAQ What's new on the site To the Forecasts and Observations / NOTAM section To "File a Flight Plan" website Publications and other links Update of the User's profile FIC Telephone Numbers My Weather Data Folder Route Weather Data Regional Weather Data Local Weather Data To the Forecasts and Observations / NOTAM section
Request Generated 11/13/2018 at 18:37:38 UTC . Weather information available at that time is displayed.

METAR/TAF

MACKENZIE/BC    (show WxCam)

METAR CYZY 131800Z AUTO 16007KT 9SM OVC110 M02/M03 A3002 RMK SLP205=
METAR CYZY 131700Z AUTO 13005KT 9SM OVC120 M04/M04 A3001 RMK SLP202=
METAR CYZY 131600Z AUTO 20004KT 9SM BKN140 BKN160 M05/M06 A3004 RMK SLP212=

TAF CYZY 131438Z 1315/1403 15005KT P6SM BKN200 TEMPO 1315/1318 2SM BR
BKN008 PROB30 1315/1318 1/2SM FZFG
FM131800 16008KT P6SM FEW040 BKN200 TEMPO 1319/1403 BKN040 BKN200
RMK FCST BASED ON AUTO OBS. NXT FCST BY 131900Z=
Your time UTC time
Weather data provided by Environment Canada and NAV CANADA